createdAt,value
2022-07-30T00:01:54.955Z,19.80
2022-07-30T00:04:21.641Z,19.90
2022-07-30T00:06:48.320Z,19.80
2022-07-30T00:09:15.059Z,19.90
2022-07-30T00:11:41.813Z,19.90
2022-07-30T00:14:08.908Z,19.90
2022-07-30T00:16:36.072Z,19.90
2022-07-30T00:19:03.038Z,19.90
2022-07-30T00:21:38.432Z,19.90
2022-07-30T00:24:06.542Z,20.00
2022-07-30T00:26:33.561Z,20.10
2022-07-30T00:29:00.317Z,20.10
2022-07-30T00:31:26.987Z,20.10
2022-07-30T00:33:53.659Z,20.00
2022-07-30T00:36:20.407Z,20.00
2022-07-30T00:38:47.081Z,20.00
2022-07-30T00:41:15.534Z,20.10
2022-07-30T00:43:42.741Z,20.10
2022-07-30T00:46:09.528Z,20.20
2022-07-30T00:48:36.471Z,20.30
2022-07-30T00:51:03.326Z,20.30
2022-07-30T00:53:30.014Z,20.30
2022-07-30T00:55:56.674Z,20.30
2022-07-30T00:58:23.353Z,20.30
2022-07-30T01:00:50.196Z,20.20
2022-07-30T01:03:16.941Z,20.10
2022-07-30T01:05:43.622Z,20.10
2022-07-30T01:08:10.309Z,20.20
2022-07-30T01:10:36.993Z,20.20
2022-07-30T01:13:04.207Z,20.20
2022-07-30T01:15:31.124Z,20.20
2022-07-30T01:18:00.210Z,20.20
2022-07-30T01:20:29.757Z,20.10
2022-07-30T01:23:04.952Z,20.20
2022-07-30T01:25:32.160Z,20.20
2022-07-30T01:28:04.617Z,20.20
2022-07-30T01:30:32.735Z,20.20
2022-07-30T01:33:02.205Z,20.30
2022-07-30T01:35:30.689Z,20.20
2022-07-30T01:37:57.718Z,20.20
2022-07-30T01:40:25.095Z,20.30
2022-07-30T01:42:55.461Z,20.40
2022-07-30T01:45:22.634Z,20.30
2022-07-30T01:47:50.071Z,20.30
2022-07-30T01:50:17.573Z,20.40
2022-07-30T01:52:49.046Z,20.40
2022-07-30T01:55:18.555Z,20.40
2022-07-30T01:57:48.612Z,20.40
2022-07-30T02:00:15.909Z,20.40
2022-07-30T02:02:42.646Z,20.50
2022-07-30T02:05:09.525Z,20.50
2022-07-30T02:07:47.650Z,20.50
2022-07-30T02:10:17.507Z,20.50
2022-07-30T02:12:50.263Z,20.60
2022-07-30T02:15:28.862Z,20.60
2022-07-30T02:17:58.517Z,20.60
2022-07-30T02:20:28.259Z,20.60
2022-07-30T02:22:57.039Z,20.60
2022-07-30T02:25:23.943Z,20.50
2022-07-30T02:27:53.508Z,20.50
2022-07-30T02:30:22.053Z,20.50
2022-07-30T02:32:49.095Z,20.70
2022-07-30T02:35:18.869Z,20.80
2022-07-30T02:37:46.973Z,20.70
2022-07-30T02:40:18.026Z,20.70
2022-07-30T02:42:46.276Z,20.70
2022-07-30T02:45:13.145Z,20.60
2022-07-30T02:47:40.280Z,20.80
2022-07-30T02:50:08.002Z,20.70
2022-07-30T02:52:34.968Z,20.80
2022-07-30T02:55:02.402Z,20.90
2022-07-30T02:57:29.532Z,20.90
2022-07-30T02:59:56.923Z,20.80
2022-07-30T03:02:29.690Z,20.90
2022-07-30T03:04:59.991Z,20.90
2022-07-30T03:07:27.165Z,20.90
2022-07-30T03:09:55.830Z,20.80
2022-07-30T03:12:24.012Z,20.90
2022-07-30T03:14:51.733Z,21.00
2022-07-30T03:17:19.754Z,20.80
2022-07-30T03:19:48.764Z,20.90
2022-07-30T03:22:17.365Z,20.90
2022-07-30T03:24:45.018Z,20.80
2022-07-30T03:27:13.725Z,20.90
2022-07-30T03:29:41.617Z,20.90
2022-07-30T03:32:08.884Z,20.90
2022-07-30T03:34:39.863Z,20.90
2022-07-30T03:37:08.090Z,21.00
2022-07-30T03:39:35.735Z,21.00
2022-07-30T03:42:03.405Z,21.00
2022-07-30T03:44:30.779Z,21.00
2022-07-30T03:46:57.763Z,21.10
2022-07-30T03:49:25.410Z,21.10
2022-07-30T03:51:53.471Z,21.10
2022-07-30T03:54:20.603Z,21.20
2022-07-30T03:56:47.561Z,21.20
2022-07-30T03:59:14.502Z,21.20
2022-07-30T04:01:41.511Z,21.20
2022-07-30T04:04:09.443Z,21.30
2022-07-30T04:06:39.829Z,21.20
2022-07-30T04:09:07.396Z,21.30
2022-07-30T04:11:41.223Z,21.40
2022-07-30T04:14:08.909Z,21.40
2022-07-30T04:16:50.664Z,21.50
2022-07-30T04:19:23.174Z,21.60
2022-07-30T04:21:50.927Z,21.80
2022-07-30T04:24:19.000Z,21.90
2022-07-30T04:26:46.467Z,21.90
2022-07-30T04:29:18.047Z,22.00
2022-07-30T04:31:47.356Z,22.20
2022-07-30T04:34:15.235Z,22.40
2022-07-30T04:36:42.545Z,22.50
2022-07-30T04:39:10.081Z,22.60
2022-07-30T04:41:49.533Z,22.60
2022-07-30T04:44:17.634Z,22.70
2022-07-30T04:46:44.383Z,22.70
2022-07-30T04:49:12.010Z,22.80
2022-07-30T04:51:39.141Z,22.80
2022-07-30T04:54:06.885Z,22.90
2022-07-30T04:56:34.042Z,22.80
2022-07-30T04:59:01.507Z,22.90
2022-07-30T05:01:34.027Z,22.80
2022-07-30T05:04:08.365Z,22.80
2022-07-30T05:06:35.716Z,22.70
2022-07-30T05:09:02.477Z,22.80
2022-07-30T05:11:29.361Z,22.90
2022-07-30T05:13:56.029Z,23.10
2022-07-30T05:16:22.807Z,23.20
2022-07-30T05:18:49.512Z,23.30
2022-07-30T05:21:16.533Z,23.40
2022-07-30T05:23:50.400Z,23.40
2022-07-30T05:26:20.941Z,23.20
2022-07-30T05:28:53.572Z,23.10
2022-07-30T05:31:22.110Z,23.20
2022-07-30T05:33:48.830Z,23.30
2022-07-30T05:36:15.662Z,23.30
2022-07-30T05:38:42.477Z,23.30
2022-07-30T05:41:24.557Z,23.40
2022-07-30T05:43:56.869Z,23.20
2022-07-30T05:46:24.036Z,23.20
2022-07-30T05:48:50.868Z,22.60
2022-07-30T05:51:19.380Z,22.50
2022-07-30T05:53:46.282Z,22.40
2022-07-30T05:56:13.090Z,22.30
2022-07-30T05:58:39.829Z,22.00
2022-07-30T06:01:06.489Z,22.00
2022-07-30T06:03:34.343Z,21.90
2022-07-30T06:06:02.841Z,21.70
2022-07-30T06:08:29.579Z,21.60
2022-07-30T06:10:56.237Z,21.40
2022-07-30T06:13:22.978Z,21.30
2022-07-30T06:15:49.700Z,21.30
2022-07-30T06:18:16.384Z,21.20
2022-07-30T06:20:43.371Z,20.50
2022-07-30T06:23:10.083Z,20.10
2022-07-30T06:25:37.457Z,20.10
2022-07-30T06:28:21.258Z,20.70
2022-07-30T06:30:53.651Z,20.80
2022-07-30T06:33:20.443Z,20.60
2022-07-30T06:35:47.510Z,20.90
2022-07-30T06:38:14.569Z,21.00
2022-07-30T06:40:41.257Z,20.90
2022-07-30T06:43:07.996Z,21.00
2022-07-30T06:45:34.729Z,20.50
2022-07-30T06:48:01.588Z,19.80
2022-07-30T06:50:28.337Z,20.60
2022-07-30T06:52:55.048Z,21.00
2022-07-30T06:55:21.734Z,21.10
2022-07-30T06:57:48.477Z,20.90
2022-07-30T07:00:15.672Z,21.10
2022-07-30T07:02:42.818Z,21.60
2022-07-30T07:05:10.021Z,21.70
2022-07-30T07:07:42.512Z,21.90
2022-07-30T07:10:13.286Z,22.00
2022-07-30T07:12:40.039Z,22.10
2022-07-30T07:15:07.010Z,22.00
2022-07-30T07:17:33.710Z,22.30
2022-07-30T07:20:02.543Z,22.50
2022-07-30T07:22:29.766Z,22.20
2022-07-30T07:24:56.548Z,21.50
2022-07-30T07:27:23.500Z,22.60
2022-07-30T07:30:05.604Z,23.20
2022-07-30T07:32:33.680Z,23.00
2022-07-30T07:35:00.649Z,23.10
2022-07-30T07:37:27.502Z,22.30
2022-07-30T07:39:54.241Z,22.40
2022-07-30T07:42:20.942Z,22.20
2022-07-30T07:44:47.714Z,23.30
2022-07-30T07:47:14.409Z,23.30
2022-07-30T07:49:41.077Z,23.00
2022-07-30T07:52:07.931Z,24.10
2022-07-30T07:54:34.626Z,24.40
2022-07-30T07:57:03.184Z,24.90
2022-07-30T07:59:35.974Z,25.20
2022-07-30T08:02:08.114Z,24.60
2022-07-30T08:04:35.390Z,25.10
2022-07-30T08:07:02.742Z,24.40
2022-07-30T08:09:40.609Z,24.90
2022-07-30T08:12:11.436Z,24.90
2022-07-30T08:14:38.121Z,25.30
2022-07-30T08:17:05.350Z,24.80
2022-07-30T08:19:32.430Z,24.40
2022-07-30T08:21:59.747Z,23.90
2022-07-30T08:24:26.923Z,24.70
2022-07-30T08:26:53.813Z,25.60
2022-07-30T08:29:20.538Z,24.40
2022-07-30T08:31:47.294Z,25.90
2022-07-30T08:34:14.388Z,25.20
2022-07-30T08:36:41.728Z,26.00
2022-07-30T08:39:08.735Z,24.80
2022-07-30T08:41:38.453Z,23.40
2022-07-30T08:44:12.533Z,23.30
2022-07-30T08:46:41.487Z,24.20
2022-07-30T08:49:14.316Z,24.60
2022-07-30T08:51:41.332Z,24.60
2022-07-30T08:54:08.021Z,24.10
2022-07-30T08:56:34.938Z,24.50
2022-07-30T08:59:02.057Z,25.60
2022-07-30T09:01:28.704Z,25.20
2022-07-30T09:03:55.414Z,24.90
2022-07-30T09:06:22.119Z,24.40
2022-07-30T09:08:48.797Z,26.30
2022-07-30T09:11:15.618Z,27.00
2022-07-30T09:13:42.771Z,27.70
2022-07-30T09:16:19.150Z,24.80
2022-07-30T09:18:45.858Z,24.30
2022-07-30T09:21:25.830Z,24.50
2022-07-30T09:23:58.260Z,25.40
2022-07-30T09:26:25.123Z,24.60
2022-07-30T09:28:52.391Z,26.50
2022-07-30T09:31:19.812Z,25.90
2022-07-30T09:33:47.516Z,25.00
2022-07-30T09:36:16.468Z,24.40
2022-07-30T09:38:51.699Z,24.40
2022-07-30T09:41:38.383Z,26.40
2022-07-30T09:44:06.302Z,26.60
2022-07-30T09:46:43.516Z,25.90
2022-07-30T09:49:17.391Z,26.60
2022-07-30T09:51:55.786Z,26.40
2022-07-30T09:54:25.365Z,26.70
2022-07-30T09:57:23.212Z,27.50
2022-07-30T09:59:53.473Z,28.10
2022-07-30T10:02:21.651Z,29.30
2022-07-30T10:04:48.338Z,28.60
2022-07-30T10:07:25.150Z,30.00
2022-07-30T10:09:54.149Z,30.70
2022-07-30T10:12:24.085Z,29.80
2022-07-30T10:14:52.937Z,29.30
2022-07-30T10:17:20.694Z,29.50
2022-07-30T10:19:49.126Z,29.00
2022-07-30T10:22:17.018Z,26.90
2022-07-30T10:24:44.444Z,27.60
2022-07-30T10:27:12.039Z,28.70
2022-07-30T10:29:42.584Z,29.10
2022-07-30T10:32:10.062Z,28.80
2022-07-30T10:34:38.194Z,29.80
2022-07-30T10:37:10.877Z,30.70
2022-07-30T10:40:05.401Z,31.30
2022-07-30T10:42:41.161Z,27.80
2022-07-30T10:45:17.550Z,30.50
2022-07-30T10:47:49.049Z,31.90
2022-07-30T10:50:17.779Z,31.60
2022-07-30T10:52:52.294Z,30.20
2022-07-30T10:55:20.927Z,30.30
2022-07-30T10:58:12.286Z,30.10
2022-07-30T11:00:54.030Z,30.50
2022-07-30T11:03:40.617Z,30.80
2022-07-30T11:06:14.974Z,31.80
2022-07-30T11:08:43.385Z,30.70
2022-07-30T11:12:01.920Z,31.80
2022-07-30T11:14:20.639Z,30.60
2022-07-30T11:16:51.371Z,28.40
2022-07-30T11:19:55.945Z,29.70
2022-07-30T11:22:25.601Z,32.90
2022-07-30T11:24:52.801Z,30.90
2022-07-30T11:27:36.086Z,31.50
2022-07-30T11:30:04.380Z,33.10
2022-07-30T11:32:32.544Z,30.50
2022-07-30T11:35:18.325Z,32.10
2022-07-30T11:37:57.208Z,33.20
2022-07-30T11:40:26.378Z,33.20
2022-07-30T11:43:15.877Z,33.40
2022-07-30T11:45:42.687Z,33.70
2022-07-30T11:48:10.520Z,33.90
2022-07-30T11:50:37.370Z,33.00
2022-07-30T11:53:07.787Z,33.80
2022-07-30T11:55:42.444Z,33.60
2022-07-30T11:58:10.615Z,31.10
2022-07-30T12:00:47.941Z,29.30
2022-07-30T12:03:16.356Z,28.10
2022-07-30T12:05:43.698Z,26.00
2022-07-30T12:08:35.122Z,28.00
2022-07-30T12:10:59.561Z,27.70
2022-07-30T12:13:45.264Z,28.00
2022-07-30T12:16:16.594Z,27.60
2022-07-30T12:18:44.110Z,30.80
2022-07-30T12:21:16.321Z,31.50
2022-07-30T12:24:03.432Z,30.60
2022-07-30T12:26:31.924Z,30.10
2022-07-30T12:28:59.837Z,33.00
2022-07-30T12:31:26.757Z,33.60
2022-07-30T12:33:58.166Z,32.90
2022-07-30T12:36:29.397Z,32.60
2022-07-30T12:38:57.987Z,30.00
2022-07-30T12:41:44.140Z,30.60
2022-07-30T12:44:10.868Z,31.00
2022-07-30T12:46:38.919Z,28.90
2022-07-30T12:49:21.499Z,28.80
2022-07-30T12:51:51.087Z,30.60
2022-07-30T12:54:19.531Z,28.00
2022-07-30T12:56:56.881Z,27.70
2022-07-30T12:59:23.873Z,31.30
2022-07-30T13:01:52.350Z,32.80
2022-07-30T13:04:19.489Z,34.70
2022-07-30T13:07:05.214Z,30.50
2022-07-30T13:09:32.141Z,29.30
2022-07-30T13:11:58.814Z,29.90
2022-07-30T13:14:26.834Z,28.70
2022-07-30T13:16:58.700Z,26.30
2022-07-30T13:19:26.481Z,28.20
2022-07-30T13:21:53.177Z,28.20
2022-07-30T13:24:20.340Z,29.40
2022-07-30T13:26:47.041Z,31.00
2022-07-30T13:29:13.733Z,29.60
2022-07-30T13:31:42.428Z,29.60
2022-07-30T13:34:10.496Z,27.60
2022-07-30T13:36:37.212Z,26.10
2022-07-30T13:39:03.928Z,26.40
2022-07-30T13:41:30.694Z,26.60
2022-07-30T13:43:57.421Z,26.80
2022-07-30T13:46:24.208Z,28.00
2022-07-30T13:48:51.011Z,31.10
2022-07-30T13:51:17.715Z,31.90
2022-07-30T13:53:44.384Z,31.40
2022-07-30T13:56:12.916Z,29.30
2022-07-30T13:58:40.200Z,28.60
2022-07-30T14:01:07.300Z,29.90
2022-07-30T14:03:35.309Z,29.20
2022-07-30T14:06:10.525Z,27.80
2022-07-30T14:08:38.150Z,27.00
2022-07-30T14:11:05.013Z,28.70
2022-07-30T14:13:31.699Z,30.60
2022-07-30T14:15:58.461Z,27.10
2022-07-30T14:18:28.055Z,26.10
2022-07-30T14:20:54.818Z,27.00
2022-07-30T14:23:21.580Z,28.40
2022-07-30T14:25:48.714Z,28.30
2022-07-30T14:28:15.729Z,27.30
2022-07-30T14:30:42.523Z,27.00
2022-07-30T14:33:09.293Z,28.50
2022-07-30T14:35:36.049Z,29.30
2022-07-30T14:38:03.608Z,31.00
2022-07-30T14:40:30.392Z,31.90
2022-07-30T14:42:57.308Z,29.20
2022-07-30T14:45:25.505Z,30.40
2022-07-30T14:47:52.579Z,29.50
2022-07-30T14:50:19.469Z,27.20
2022-07-30T14:52:47.514Z,27.90
2022-07-30T14:55:14.694Z,27.30
2022-07-30T14:57:43.371Z,26.00
2022-07-30T15:00:13.414Z,27.10
2022-07-30T15:02:40.857Z,28.00
2022-07-30T15:05:08.127Z,29.10
2022-07-30T15:07:34.973Z,28.50
2022-07-30T15:10:02.573Z,28.70
2022-07-30T15:12:29.405Z,27.90
2022-07-30T15:14:56.240Z,29.30
2022-07-30T15:17:22.918Z,28.50
2022-07-30T15:19:50.969Z,26.80
2022-07-30T15:22:21.465Z,27.40
2022-07-30T15:24:48.709Z,28.10
2022-07-30T15:27:15.545Z,28.80
2022-07-30T15:29:42.243Z,26.60
2022-07-30T15:32:09.030Z,26.70
2022-07-30T15:34:35.741Z,25.80
2022-07-30T15:37:03.031Z,24.70
2022-07-30T15:39:32.333Z,25.90
2022-07-30T15:41:59.723Z,27.60
2022-07-30T15:44:26.694Z,26.80
2022-07-30T15:46:53.540Z,28.80
2022-07-30T15:49:20.348Z,28.80
2022-07-30T15:51:49.888Z,27.20
2022-07-30T15:54:22.777Z,26.10
2022-07-30T15:56:50.629Z,26.70
2022-07-30T15:59:17.664Z,26.00
2022-07-30T16:01:44.610Z,25.90
2022-07-30T16:04:19.499Z,25.50
2022-07-30T16:06:46.891Z,25.80
2022-07-30T16:09:13.746Z,25.30
2022-07-30T16:11:41.630Z,25.20
2022-07-30T16:14:09.309Z,25.10
2022-07-30T16:16:35.993Z,25.50
2022-07-30T16:19:02.743Z,26.10
2022-07-30T16:21:29.448Z,26.20
2022-07-30T16:23:56.818Z,26.40
2022-07-30T16:26:23.609Z,25.40
2022-07-30T16:28:50.595Z,25.90
2022-07-30T16:31:17.706Z,26.30
2022-07-30T16:33:44.440Z,26.00
2022-07-30T16:36:11.428Z,26.50
2022-07-30T16:38:38.132Z,26.20
2022-07-30T16:41:04.793Z,25.10
2022-07-30T16:43:34.402Z,24.60
2022-07-30T16:46:01.149Z,24.40
2022-07-30T16:48:27.924Z,24.40
2022-07-30T16:50:54.749Z,24.40
2022-07-30T16:53:21.456Z,24.00
2022-07-30T16:55:48.200Z,24.20
2022-07-30T16:58:14.977Z,24.30
2022-07-30T17:00:41.827Z,23.80
2022-07-30T17:03:08.777Z,23.80
2022-07-30T17:05:35.694Z,24.00
2022-07-30T17:08:04.690Z,23.80
2022-07-30T17:10:31.522Z,23.50
2022-07-30T17:12:58.272Z,23.10
2022-07-30T17:15:31.882Z,23.30
2022-07-30T17:18:00.156Z,23.50
2022-07-30T17:20:26.931Z,23.30
2022-07-30T17:22:55.341Z,23.00
2022-07-30T17:25:22.698Z,23.10
2022-07-30T17:27:49.485Z,23.10
2022-07-30T17:30:16.186Z,22.80
2022-07-30T17:32:42.869Z,22.70
2022-07-30T17:35:13.741Z,22.80
2022-07-30T17:37:40.807Z,22.70
2022-07-30T17:40:29.928Z,22.50
2022-07-30T17:42:54.701Z,22.50
2022-07-30T17:45:21.413Z,22.50
2022-07-30T17:47:48.091Z,22.30
2022-07-30T17:50:14.836Z,22.20
2022-07-30T17:52:42.361Z,22.40
2022-07-30T17:55:11.331Z,22.10
2022-07-30T17:57:39.141Z,22.10
2022-07-30T18:00:09.538Z,22.10
2022-07-30T18:02:36.382Z,22.30
2022-07-30T18:05:03.146Z,22.10
2022-07-30T18:07:29.905Z,21.70
2022-07-30T18:09:56.579Z,21.50
2022-07-30T18:12:23.383Z,21.50
2022-07-30T18:14:50.089Z,21.30
2022-07-30T18:17:16.870Z,21.50
2022-07-30T18:19:43.557Z,21.60
2022-07-30T18:22:10.413Z,21.40
2022-07-30T18:24:43.870Z,21.50
2022-07-30T18:27:12.019Z,21.30
2022-07-30T18:29:38.974Z,21.10
2022-07-30T18:32:06.372Z,21.10
2022-07-30T18:34:33.369Z,21.30
2022-07-30T18:37:00.166Z,21.30
2022-07-30T18:39:26.893Z,21.00
2022-07-30T18:41:53.670Z,21.20
2022-07-30T18:44:20.906Z,21.10
2022-07-30T18:46:47.840Z,21.00
2022-07-30T18:49:35.608Z,21.20
2022-07-30T18:52:02.885Z,21.00
2022-07-30T18:54:29.951Z,20.90
2022-07-30T18:56:56.656Z,20.80
2022-07-30T18:59:23.318Z,20.80
2022-07-30T19:01:50.114Z,20.80
2022-07-30T19:04:16.768Z,20.80
2022-07-30T19:06:43.704Z,20.90
2022-07-30T19:09:15.287Z,20.90
2022-07-30T19:11:43.893Z,20.60
2022-07-30T19:14:11.747Z,20.60
2022-07-30T19:16:38.857Z,20.60
2022-07-30T19:19:05.911Z,20.60
2022-07-30T19:21:32.634Z,20.50
2022-07-30T19:23:59.456Z,20.50
2022-07-30T19:26:26.289Z,20.70
2022-07-30T19:28:52.967Z,20.30
2022-07-30T19:31:19.757Z,20.20
2022-07-30T19:33:46.506Z,20.30
2022-07-30T19:36:15.209Z,20.30
2022-07-30T19:38:45.108Z,20.20
2022-07-30T19:41:11.870Z,20.10
2022-07-30T19:43:40.839Z,20.10
2022-07-30T19:46:07.717Z,20.10
2022-07-30T19:48:37.260Z,20.10
2022-07-30T19:51:04.478Z,20.10
2022-07-30T19:53:33.929Z,20.20
2022-07-30T19:56:04.437Z,20.30
2022-07-30T19:58:36.706Z,20.20
2022-07-30T20:01:08.416Z,20.20
2022-07-30T20:03:35.941Z,20.30
2022-07-30T20:06:05.980Z,20.20
2022-07-30T20:08:34.445Z,20.20
2022-07-30T20:11:02.202Z,20.10
2022-07-30T20:13:44.421Z,20.00
2022-07-30T20:16:12.737Z,20.00
2022-07-30T20:18:39.917Z,20.20
2022-07-30T20:21:12.549Z,20.30
2022-07-30T20:23:41.546Z,20.30
2022-07-30T20:26:12.414Z,20.20
2022-07-30T20:28:40.370Z,20.30
2022-07-30T20:31:09.112Z,20.20
2022-07-30T20:33:37.838Z,20.30
2022-07-30T20:36:04.893Z,20.30
2022-07-30T20:38:33.768Z,20.30
2022-07-30T20:41:02.437Z,20.20
2022-07-30T20:43:29.313Z,20.20
2022-07-30T20:45:56.112Z,20.20
2022-07-30T20:48:25.453Z,20.20
2022-07-30T20:50:52.653Z,20.20
2022-07-30T20:53:19.863Z,20.10
2022-07-30T20:55:47.537Z,20.20
2022-07-30T20:58:16.501Z,20.20
2022-07-30T21:00:49.272Z,20.20
2022-07-30T21:03:17.540Z,20.10
2022-07-30T21:05:44.862Z,20.10
2022-07-30T21:08:14.029Z,19.90
2022-07-30T21:10:41.012Z,20.00
2022-07-30T21:13:11.475Z,20.10
2022-07-30T21:16:01.700Z,20.00
2022-07-30T21:18:25.328Z,20.10
2022-07-30T21:20:53.208Z,20.00
2022-07-30T21:23:22.460Z,20.00
2022-07-30T21:26:00.470Z,20.00
2022-07-30T21:28:29.215Z,19.90
2022-07-30T21:30:57.074Z,19.80
2022-07-30T21:33:24.298Z,19.90
2022-07-30T21:35:57.710Z,19.90
2022-07-30T21:38:26.538Z,19.90
2022-07-30T21:40:53.433Z,20.10
2022-07-30T21:43:28.763Z,19.90
2022-07-30T21:45:57.645Z,19.90
2022-07-30T21:48:24.724Z,19.90
2022-07-30T21:50:52.041Z,19.90
2022-07-30T21:53:29.851Z,19.70
2022-07-30T21:56:05.851Z,19.80
2022-07-30T21:58:32.629Z,19.80
2022-07-30T22:01:01.464Z,19.60
2022-07-30T22:04:03.732Z,19.60
2022-07-30T22:06:30.974Z,19.70
2022-07-30T22:08:57.687Z,19.60
2022-07-30T22:11:24.382Z,19.60
2022-07-30T22:14:09.110Z,19.70
2022-07-30T22:16:35.816Z,19.70
2022-07-30T22:19:02.579Z,19.50
2022-07-30T22:21:29.254Z,19.50
2022-07-30T22:23:58.558Z,19.40
2022-07-30T22:26:27.965Z,19.30
2022-07-30T22:28:54.673Z,19.30
2022-07-30T22:31:21.340Z,19.40
2022-07-30T22:33:49.876Z,19.50
2022-07-30T22:36:17.959Z,19.50
2022-07-30T22:38:58.271Z,19.30
2022-07-30T22:41:26.332Z,19.50
2022-07-30T22:43:55.816Z,19.30
2022-07-30T22:46:31.046Z,19.30
2022-07-30T22:48:59.314Z,19.40
2022-07-30T22:51:26.380Z,19.30
2022-07-30T22:54:13.410Z,19.30
2022-07-30T22:56:40.516Z,19.30
2022-07-30T22:59:07.187Z,19.40
2022-07-30T23:01:34.084Z,19.40
2022-07-30T23:04:01.570Z,19.30
2022-07-30T23:06:30.203Z,19.30
2022-07-30T23:08:56.966Z,19.30
2022-07-30T23:11:23.746Z,19.40
2022-07-30T23:13:53.862Z,19.30
2022-07-30T23:16:20.571Z,19.40
2022-07-30T23:18:47.464Z,19.40
2022-07-30T23:21:15.022Z,19.20
2022-07-30T23:23:41.689Z,19.30
2022-07-30T23:26:08.749Z,19.30
2022-07-30T23:28:36.018Z,19.20
2022-07-30T23:31:03.578Z,19.30
2022-07-30T23:33:30.761Z,19.20
2022-07-30T23:35:57.800Z,19.30
2022-07-30T23:38:25.234Z,19.20
2022-07-30T23:40:52.425Z,19.20
2022-07-30T23:43:19.153Z,19.10
2022-07-30T23:45:45.853Z,19.10
2022-07-30T23:48:12.668Z,19.10
2022-07-30T23:50:39.386Z,19.20
2022-07-30T23:53:06.080Z,19.20
2022-07-30T23:55:32.740Z,19.20
2022-07-30T23:58:00.160Z,19.20
